Time,TemperatureF,DewpointF,PressureIn,WindDirection,WindDirectionDegrees,WindSpeedMPH,WindSpeedGustMPH,Humidity,HourlyPrecipIn,Conditions,Clouds,dailyrainin,SoftwareType,DateUTC
2013-01-24 00:01:00,23.6,1.0,30.27,SE,130,0.0,-999.0,37,-99.99,,,0.00,weatherlink.com 1.10,2013-01-24 07:01:00,
2013-01-24 00:17:00,23.3,-1.0,30.27,SE,130,0.0,-999.0,35,-99.99,,,0.00,weatherlink.com 1.10,2013-01-24 07:17:00,
2013-01-24 00:31:00,23.4,1.0,30.25,SE,130,0.0,-999.0,37,-99.99,,,0.00,weatherlink.com 1.10,2013-01-24 07:31:00,
2013-01-24 00:47:00,22.9,-3.0,30.25,SE,130,0.0,-999.0,32,-99.99,,,0.00,weatherlink.com 1.10,2013-01-24 07:47:00,
2013-01-24 01:02:00,22.8,-3.0,30.25,SE,130,0.0,-999.0,32,-99.99,,,0.00,weatherlink.com 1.10,2013-01-24 08:02:00,
2013-01-24 01:16:00,22.9,-1.0,30.23,SE,130,0.0,-999.0,35,-99.99,,,0.00,weatherlink.com 1.10,2013-01-24 08:16:00,
2013-01-24 01:31:00,23.2,1.0,30.23,SE,130,0.0,-999.0,38,-99.99,,,0.00,weatherlink.com 1.10,2013-01-24 08:31:00,
2013-01-24 01:46:00,22.7,-6.0,30.23,SE,130,0.0,-999.0,28,-99.99,,,0.00,weatherlink.com 1.10,2013-01-24 08:46:00,
2013-01-24 02:02:00,23.9,-3.0,30.23,ESE,119,2.0,-999.0,31,-99.99,,,0.00,weatherlink.com 1.10,2013-01-24 09:02:00,
2013-01-24 02:17:00,25.8,-3.0,30.22,WNW,286,0.0,-999.0,29,-99.99,,,0.00,weatherlink.com 1.10,2013-01-24 09:17:00,
2013-01-24 02:32:00,25.6,-3.0,30.22,WNW,284,0.0,-999.0,28,-99.99,,,0.00,weatherlink.com 1.10,2013-01-24 09:32:00,
2013-01-24 02:47:00,25.4,-4.0,30.22,WNW,284,0.0,-999.0,27,-99.99,,,0.00,weatherlink.com 1.10,2013-01-24 09:47:00,
2013-01-24 03:01:00,25.9,-3.0,30.21,SW,236,1.0,-999.0,28,-99.99,,,0.00,weatherlink.com 1.10,2013-01-24 10:01:00,
2013-01-24 03:16:00,27.1,-5.0,30.21,ESE,105,2.0,-999.0,24,-99.99,,,0.00,weatherlink.com 1.10,2013-01-24 10:16:00,
2013-01-24 03:31:00,32.1,0.0,30.20,East,98,0.0,-999.0,25,-99.99,,,0.00,weatherlink.com 1.10,2013-01-24 10:31:00,
2013-01-24 03:46:00,32.1,-6.0,30.19,SSE,157,0.0,-999.0,19,-99.99,,,0.00,weatherlink.com 1.10,2013-01-24 10:46:00,
2013-01-24 04:02:00,31.2,-4.0,30.19,WSW,241,0.0,-999.0,22,-99.99,,,0.00,weatherlink.com 1.10,2013-01-24 11:02:00,
2013-01-24 04:17:00,31.0,-4.0,30.18,NNE,18,0.0,-999.0,22,-99.99,,,0.00,weatherlink.com 1.10,2013-01-24 11:17:00,
2013-01-24 04:32:00,29.6,-5.0,30.18,NNE,17,0.0,-999.0,22,-99.99,,,0.00,weatherlink.com 1.10,2013-01-24 11:32:00,
2013-01-24 04:47:00,29.2,-5.0,30.16,NNE,15,0.0,-999.0,23,-99.99,,,0.00,weatherlink.com 1.10,2013-01-24 11:47:00,
2013-01-24 05:01:00,29.6,-7.0,30.19,North,360,9.0,-999.0,20,-99.99,,,0.00,weatherlink.com 1.10,2013-01-24 12:01:00,
2013-01-24 05:16:00,32.7,-4.0,30.18,WSW,248,2.0,-999.0,20,-99.99,,,0.00,weatherlink.com 1.10,2013-01-24 12:16:00,
2013-01-24 05:31:00,32.3,-6.0,30.18,WSW,254,4.0,-999.0,19,-99.99,,,0.00,weatherlink.com 1.10,2013-01-24 12:31:00,
2013-01-24 05:46:00,31.1,-2.0,30.17,WSW,252,0.0,-999.0,24,-99.99,,,0.00,weatherlink.com 1.10,2013-01-24 12:46:00,
2013-01-24 06:02:00,31.8,0.0,30.17,WNW,287,0.0,-999.0,25,-99.99,,,0.00,weatherlink.com 1.10,2013-01-24 13:02:00,
2013-01-24 06:17:00,31.2,-5.0,30.18,NW,313,2.0,-999.0,21,-99.99,,,0.00,weatherlink.com 1.10,2013-01-24 13:17:00,
2013-01-24 06:32:00,31.1,-5.0,30.18,NW,312,0.0,-999.0,21,-99.99,,,0.00,weatherlink.com 1.10,2013-01-24 13:32:00,
2013-01-24 06:47:00,31.0,-5.0,30.17,SSW,192,2.0,-999.0,21,-99.99,,,0.00,weatherlink.com 1.10,2013-01-24 13:47:00,
2013-01-24 07:01:00,31.5,-3.0,30.17,WNW,290,1.0,-999.0,23,-99.99,,,0.00,weatherlink.com 1.10,2013-01-24 14:01:00,
2013-01-24 07:16:00,31.0,-3.0,30.17,SW,215,2.0,-999.0,23,-99.99,,,0.00,weatherlink.com 1.10,2013-01-24 14:16:00,
2013-01-24 07:31:00,31.5,-3.0,30.16,West,272,0.0,-999.0,23,-99.99,,,0.00,weatherlink.com 1.10,2013-01-24 14:31:00,
2013-01-24 07:46:00,32.5,3.0,30.15,West,267,5.0,-999.0,28,-99.99,,,0.00,weatherlink.com 1.10,2013-01-24 14:46:00,
2013-01-24 08:02:00,33.9,7.0,30.16,North,351,4.0,-999.0,32,-99.99,,,0.00,weatherlink.com 1.10,2013-01-24 15:02:00,
2013-01-24 08:17:00,33.6,7.0,30.16,NNE,17,1.0,-999.0,32,-99.99,,,0.00,weatherlink.com 1.10,2013-01-24 15:17:00,
2013-01-24 08:32:00,34.5,8.0,30.16,ENE,67,1.0,-999.0,33,-99.99,,,0.00,weatherlink.com 1.10,2013-01-24 15:32:00,
2013-01-24 08:46:00,34.8,10.0,30.16,West,274,1.0,-999.0,36,-99.99,,,0.00,weatherlink.com 1.10,2013-01-24 15:46:00,
2013-01-24 09:01:00,34.8,12.0,30.16,WNW,300,2.0,-999.0,39,-99.99,,,0.00,weatherlink.com 1.10,2013-01-24 16:01:00,
2013-01-24 09:16:00,34.5,12.0,30.16,NNW,343,4.0,-999.0,40,-99.99,,,0.00,weatherlink.com 1.10,2013-01-24 16:16:00,
2013-01-24 09:31:00,35.2,12.0,30.16,WNW,296,2.0,-999.0,39,-99.99,,,0.00,weatherlink.com 1.10,2013-01-24 16:31:00,
2013-01-24 09:46:00,35.6,13.0,30.16,NNW,329,3.0,-999.0,39,-99.99,,,0.00,weatherlink.com 1.10,2013-01-24 16:46:00,
2013-01-24 10:02:00,35.8,12.0,30.17,WSW,257,2.0,-999.0,37,-99.99,,,0.00,weatherlink.com 1.10,2013-01-24 17:02:00,
2013-01-24 10:17:00,35.4,13.0,30.17,West,271,6.0,-999.0,40,-99.99,,,0.00,weatherlink.com 1.10,2013-01-24 17:17:00,
2013-01-24 10:32:00,35.7,15.0,30.18,West,273,4.0,-999.0,42,-99.99,,,0.00,weatherlink.com 1.10,2013-01-24 17:32:00,
2013-01-24 10:47:00,35.4,15.0,30.16,NE,43,3.0,-999.0,43,-99.99,,,0.00,weatherlink.com 1.10,2013-01-24 17:47:00,
2013-01-24 11:01:00,35.7,16.0,30.15,SSW,193,0.0,-999.0,45,-99.99,,,0.00,weatherlink.com 1.10,2013-01-24 18:01:00,
2013-01-24 11:16:00,38.0,18.0,30.14,SSW,196,1.0,-999.0,44,-99.99,,,0.00,weatherlink.com 1.10,2013-01-24 18:16:00,
2013-01-24 11:31:00,38.3,17.0,30.13,NNE,15,5.0,-999.0,43,-99.99,,,0.00,weatherlink.com 1.10,2013-01-24 18:31:00,
2013-01-24 11:46:00,37.7,17.0,30.12,East,90,9.0,-999.0,44,-99.99,,,0.00,weatherlink.com 1.10,2013-01-24 18:46:00,
2013-01-24 12:02:00,38.1,18.0,30.10,South,171,5.0,-999.0,45,-99.99,,,0.00,weatherlink.com 1.10,2013-01-24 19:02:00,
2013-01-24 12:17:00,38.5,19.0,30.08,South,177,5.0,-999.0,45,-99.99,,,0.00,weatherlink.com 1.10,2013-01-24 19:17:00,
2013-01-24 12:32:00,39.2,19.0,30.05,WNW,290,0.0,-999.0,45,-99.99,,,0.00,weatherlink.com 1.10,2013-01-24 19:32:00,
2013-01-24 12:47:00,38.7,19.0,30.05,East,88,6.0,-999.0,45,-99.99,,,0.00,weatherlink.com 1.10,2013-01-24 19:47:00,
2013-01-24 13:01:00,38.7,19.0,30.03,NNE,12,9.0,-999.0,45,-99.99,,,0.00,weatherlink.com 1.10,2013-01-24 20:01:00,
2013-01-24 13:19:00,38.5,19.0,30.03,ESE,120,5.0,-999.0,45,-99.99,,,0.00,weatherlink.com 1.10,2013-01-24 20:19:00,
2013-01-24 13:31:00,38.4,19.0,30.04,ENE,65,7.0,-999.0,46,-99.99,,,0.00,weatherlink.com 1.10,2013-01-24 20:31:00,
2013-01-24 13:46:00,38.1,19.0,30.04,East,83,7.0,-999.0,47,-99.99,,,0.00,weatherlink.com 1.10,2013-01-24 20:46:00,
2013-01-24 14:02:00,37.9,20.0,30.04,ENE,66,7.0,-999.0,48,-99.99,,,0.00,weatherlink.com 1.10,2013-01-24 21:02:00,
2013-01-24 14:17:00,37.8,20.0,30.03,ESE,108,6.0,-999.0,48,-99.99,,,0.00,weatherlink.com 1.10,2013-01-24 21:17:00,
2013-01-24 14:32:00,37.2,20.0,30.03,South,172,4.0,-999.0,50,-99.99,,,0.00,weatherlink.com 1.10,2013-01-24 21:32:00,
2013-01-24 14:47:00,36.9,20.0,30.04,ENE,77,5.0,-999.0,51,-99.99,,,0.00,weatherlink.com 1.10,2013-01-24 21:47:00,
2013-01-24 15:01:00,36.3,20.0,30.07,West,273,5.0,-999.0,53,-99.99,,,0.00,weatherlink.com 1.10,2013-01-24 22:01:00,
2013-01-24 15:16:00,35.7,20.0,30.08,SSE,152,2.0,-999.0,54,-99.99,,,0.00,weatherlink.com 1.10,2013-01-24 22:16:00,
2013-01-24 15:31:00,35.1,20.0,30.09,East,100,6.0,-999.0,55,-99.99,,,0.00,weatherlink.com 1.10,2013-01-24 22:31:00,
2013-01-24 15:47:00,34.4,20.0,30.08,SE,134,10.0,-999.0,56,-99.99,,,0.00,weatherlink.com 1.10,2013-01-24 22:47:00,
2013-01-24 16:02:00,33.6,20.0,30.10,ESE,105,2.0,-999.0,59,-99.99,,,0.00,weatherlink.com 1.10,2013-01-24 23:02:00,
2013-01-24 16:17:00,33.0,20.0,30.10,SE,132,0.0,-999.0,59,-99.99,,,0.00,weatherlink.com 1.10,2013-01-24 23:17:00,
2013-01-24 16:32:00,32.5,19.0,30.09,ENE,76,3.0,-999.0,59,-99.99,,,0.00,weatherlink.com 1.10,2013-01-24 23:32:00,
2013-01-24 16:47:00,32.2,20.0,30.11,South,191,4.0,-999.0,60,-99.99,,,0.00,weatherlink.com 1.10,2013-01-24 23:47:00,
2013-01-24 17:01:00,31.9,20.0,30.12,East,80,7.0,-999.0,61,-99.99,,,0.00,weatherlink.com 1.10,2013-01-25 00:01:00,
2013-01-24 17:16:00,31.6,19.0,30.12,North,11,5.0,-999.0,61,-99.99,,,0.00,weatherlink.com 1.10,2013-01-25 00:16:00,
2013-01-24 17:31:00,31.4,19.0,30.13,ENE,61,2.0,-999.0,61,-99.99,,,0.00,weatherlink.com 1.10,2013-01-25 00:31:00,
2013-01-24 17:46:00,31.4,20.0,30.13,SE,129,6.0,-999.0,62,-99.99,,,0.00,weatherlink.com 1.10,2013-01-25 00:46:00,
2013-01-24 18:01:00,31.4,20.0,30.14,East,88,4.0,-999.0,62,-99.99,,,0.00,weatherlink.com 1.10,2013-01-25 01:01:00,
2013-01-24 18:16:00,31.4,20.0,30.15,South,172,4.0,-999.0,63,-99.99,,,0.00,weatherlink.com 1.10,2013-01-25 01:16:00,
2013-01-24 18:31:00,31.2,21.0,30.16,East,96,4.0,-999.0,65,-99.99,,,0.00,weatherlink.com 1.10,2013-01-25 01:31:00,
2013-01-24 18:46:00,30.9,20.0,30.15,ESE,117,7.0,-999.0,65,-99.99,,,0.00,weatherlink.com 1.10,2013-01-25 01:46:00,
2013-01-24 19:02:00,30.8,20.0,30.16,East,98,6.0,-999.0,65,-99.99,,,0.00,weatherlink.com 1.10,2013-01-25 02:02:00,
2013-01-24 19:17:00,30.7,20.0,30.17,ENE,70,2.0,-999.0,65,-99.99,,,0.00,weatherlink.com 1.10,2013-01-25 02:17:00,
2013-01-24 19:31:00,30.2,20.0,30.18,NE,54,6.0,-999.0,67,-99.99,,,0.00,weatherlink.com 1.10,2013-01-25 02:31:00,
2013-01-24 19:46:00,30.1,20.0,30.17,ESE,111,5.0,-999.0,66,-99.99,,,0.00,weatherlink.com 1.10,2013-01-25 02:46:00,
2013-01-24 20:01:00,30.4,20.0,30.18,ESE,117,0.0,-999.0,65,-99.99,,,0.00,weatherlink.com 1.10,2013-01-25 03:01:00,
2013-01-24 20:16:00,30.3,20.0,30.18,East,91,4.0,-999.0,65,-99.99,,,0.00,weatherlink.com 1.10,2013-01-25 03:16:00,
2013-01-24 20:31:00,30.1,20.0,30.19,NNE,19,2.0,-999.0,65,-99.99,,,0.00,weatherlink.com 1.10,2013-01-25 03:31:00,
2013-01-24 20:46:00,30.0,19.0,30.19,ESE,111,1.0,-999.0,65,-99.99,,,0.00,weatherlink.com 1.10,2013-01-25 03:46:00,
2013-01-24 21:02:00,29.7,20.0,30.19,ESE,117,5.0,-999.0,66,-99.99,,,0.00,weatherlink.com 1.10,2013-01-25 04:02:00,
2013-01-24 21:17:00,29.6,19.0,30.20,East,80,6.0,-999.0,66,-99.99,,,0.00,weatherlink.com 1.10,2013-01-25 04:17:00,
2013-01-24 21:32:00,29.5,19.0,30.20,SE,126,6.0,-999.0,66,-99.99,,,0.00,weatherlink.com 1.10,2013-01-25 04:32:00,
2013-01-24 21:47:00,29.3,19.0,30.20,ENE,77,1.0,-999.0,66,-99.99,,,0.00,weatherlink.com 1.10,2013-01-25 04:47:00,
2013-01-24 22:16:00,29.3,19.0,30.23,NNE,15,5.0,-999.0,66,-99.99,,,0.00,weatherlink.com 1.10,2013-01-25 05:16:00,
2013-01-24 22:31:00,29.2,19.0,30.25,North,355,0.0,-999.0,67,-99.99,,,0.00,weatherlink.com 1.10,2013-01-25 05:31:00,
2013-01-24 22:46:00,28.7,19.0,30.24,WSW,250,1.0,-999.0,67,-99.99,,,0.00,weatherlink.com 1.10,2013-01-25 05:46:00,
2013-01-24 23:01:00,28.3,19.0,30.25,West,261,1.0,-999.0,68,-99.99,,,0.00,weatherlink.com 1.10,2013-01-25 06:01:00,
2013-01-24 23:16:00,28.5,20.0,30.25,West,265,4.0,-999.0,69,-99.99,,,0.00,weatherlink.com 1.10,2013-01-25 06:16:00,
2013-01-24 23:31:00,29.2,19.0,30.26,SW,234,2.0,-999.0,67,-99.99,,,0.00,weatherlink.com 1.10,2013-01-25 06:31:00,
2013-01-24 23:46:00,29.2,19.0,30.27,NW,321,0.0,-999.0,66,-99.99,,,0.00,weatherlink.com 1.10,2013-01-25 06:46:00,